Time;durP1;ratioP1;P1;durP2;ratioP2;P2;SDS_P1;SDS_P2;PMS_P1;PMS_P2;Temp;Humidity;BMP_temperature;BMP_pressure;BME280_temperature;BME280_humidity;BME280_pressure;Samples;Min_cycle;Max_cycle;Signal;HPM_P1;HPM_P2
2021/11/06 00:00:56;;;;;;;15.52;12.35;;;;;;;;;;5052814;28;20021;-58
2021/11/06 00:03:22;;;;;;;13.57;10.90;;;;;;;;;;5052436;28;20360;-58
2021/11/06 00:05:48;;;;;;;20.95;12.25;;;;;;;;;;5052436;28;20021;-58
2021/11/06 00:08:14;;;;;;;16.77;12.05;;;;;;;;;;5050977;28;20120;-58
2021/11/06 00:10:41;;;;;;;13.25;10.43;;;;;;;;;;5052695;28;20029;-58
2021/11/06 00:13:07;;;;;;;16.08;12.20;;;;;;;;;;5052761;28;20057;-58
2021/11/06 00:15:33;;;;;;;15.52;13.07;;;;;;;;;;5052368;28;20048;-58
2021/11/06 00:17:59;;;;;;;17.10;13.32;;;;;;;;;;5051740;28;20028;-58
2021/11/06 00:20:25;;;;;;;19.80;15.40;;;;;;;;;;5052161;28;20036;-58
2021/11/06 00:22:51;;;;;;;17.20;14.23;;;;;;;;;;5052343;28;20043;-57
2021/11/06 00:25:17;;;;;;;17.83;12.65;;;;;;;;;;5052380;28;20029;-57
2021/11/06 00:27:44;;;;;;;15.85;12.27;;;;;;;;;;5051325;28;20044;-58
2021/11/06 00:30:11;;;;;;;16.13;13.30;;;;;;;;;;5052249;28;20088;-57
2021/11/06 00:32:37;;;;;;;13.95;11.57;;;;;;;;;;5052189;28;20029;-57
2021/11/06 00:35:04;;;;;;;18.10;14.10;;;;;;;;;;5051856;28;20037;-58
2021/11/06 00:37:30;;;;;;;18.80;14.30;;;;;;;;;;5051414;28;20471;-58
2021/11/06 00:39:56;;;;;;;24.90;15.10;;;;;;;;;;5052338;28;20025;-57
2021/11/06 00:42:22;;;;;;;20.70;14.88;;;;;;;;;;5052265;28;20079;-57
2021/11/06 00:44:48;;;;;;;16.17;13.88;;;;;;;;;;5051914;28;20468;-58
2021/11/06 00:47:14;;;;;;;23.80;14.15;;;;;;;;;;5051285;28;20036;-58
2021/11/06 00:49:40;;;;;;;19.65;14.50;;;;;;;;;;5052160;28;20487;-58
2021/11/06 00:52:07;;;;;;;24.67;16.58;;;;;;;;;;5052318;28;20191;-58
2021/11/06 00:54:33;;;;;;;22.20;14.20;;;;;;;;;;5052034;28;20029;-58
2021/11/06 00:56:59;;;;;;;18.83;12.88;;;;;;;;;;5051244;28;20052;-58
2021/11/06 00:59:25;;;;;;;18.83;14.05;;;;;;;;;;5051717;28;20029;-57
2021/11/06 01:01:51;;;;;;;23.23;14.63;;;;;;;;;;5051922;28;20036;-58
2021/11/06 01:04:18;;;;;;;15.10;13.50;;;;;;;;;;5051495;28;20060;-58
2021/11/06 01:06:44;;;;;;;16.52;13.70;;;;;;;;;;5051035;28;20528;-58
2021/11/06 01:09:10;;;;;;;15.68;11.90;;;;;;;;;;5051774;28;20029;-57
2021/11/06 01:11:36;;;;;;;15.60;13.40;;;;;;;;;;5051931;28;20032;-58
2021/11/06 01:14:03;;;;;;;18.42;13.75;;;;;;;;;;5051489;28;20053;-58
2021/11/06 01:16:29;;;;;;;19.55;14.18;;;;;;;;;;5050912;28;20274;-58
2021/11/06 01:18:55;;;;;;;16.05;13.23;;;;;;;;;;5053121;28;20048;-57
2021/11/06 01:21:21;;;;;;;17.35;13.95;;;;;;;;;;5055828;28;20029;-58
2021/11/06 01:23:47;;;;;;;18.20;13.68;;;;;;;;;;5055912;28;20467;-58
2021/11/06 01:26:13;;;;;;;23.25;12.80;;;;;;;;;;5053777;28;20386;-58
2021/11/06 01:28:39;;;;;;;18.85;14.35;;;;;;;;;;5055872;28;20063;-58
2021/11/06 01:31:05;;;;;;;18.08;15.00;;;;;;;;;;5055269;28;20111;-57
2021/11/06 01:33:31;;;;;;;19.00;14.15;;;;;;;;;;5055340;28;20021;-58
2021/11/06 01:35:58;;;;;;;17.70;13.15;;;;;;;;;;5055363;28;20041;-58
2021/11/06 01:38:24;;;;;;;14.98;13.35;;;;;;;;;;5054857;28;20436;-58
2021/11/06 01:40:50;;;;;;;15.63;12.85;;;;;;;;;;5055351;28;20036;-58
2021/11/06 01:43:17;;;;;;;17.55;14.38;;;;;;;;;;5055444;28;20128;-58
2021/11/06 01:45:43;;;;;;;15.82;12.90;;;;;;;;;;5053624;28;20464;-58
2021/11/06 01:48:09;;;;;;;19.05;13.32;;;;;;;;;;5054426;28;20465;-58
2021/11/06 01:50:35;;;;;;;21.60;13.65;;;;;;;;;;5055266;28;20028;-58
2021/11/06 01:53:01;;;;;;;18.75;13.75;;;;;;;;;;5055295;28;20033;-58
2021/11/06 01:55:27;;;;;;;18.38;14.70;;;;;;;;;;5054987;28;20043;-58
2021/11/06 01:57:54;;;;;;;18.42;13.32;;;;;;;;;;5054379;28;20029;-58
2021/11/06 02:00:24;;;;;;;16.92;13.02;;;;;;;;;;5054705;28;20053;-58
2021/11/06 02:02:50;;;;;;;18.50;14.40;;;;;;;;;;5055338;28;20048;-58
2021/11/06 02:05:16;;;;;;;15.30;11.93;;;;;;;;;;5054936;28;20417;-57
2021/11/06 02:07:42;;;;;;;19.65;13.82;;;;;;;;;;5054157;28;20033;-57
2021/11/06 02:10:10;;;;;;;17.50;14.32;;;;;;;;;;5054741;28;20033;-58
2021/11/06 02:12:36;;;;;;;19.88;13.77;;;;;;;;;;5054844;28;20051;-58
2021/11/06 02:15:02;;;;;;;18.30;13.27;;;;;;;;;;5054255;28;20025;-58
2021/11/06 02:17:28;;;;;;;16.55;13.82;;;;;;;;;;5054186;28;20120;-58
2021/11/06 02:19:54;;;;;;;17.35;14.43;;;;;;;;;;5054863;28;20464;-58
2021/11/06 02:22:20;;;;;;;18.83;15.18;;;;;;;;;;5054645;28;20025;-58
2021/11/06 02:24:46;;;;;;;16.42;14.30;;;;;;;;;;5054534;28;20028;-58
2021/11/06 02:27:12;;;;;;;19.13;15.05;;;;;;;;;;5053562;28;20487;-57
2021/11/06 02:29:38;;;;;;;19.67;14.55;;;;;;;;;;5053855;28;20051;-58
2021/11/06 02:32:06;;;;;;;20.45;15.75;;;;;;;;;;5053787;28;20075;-58
2021/11/06 02:34:33;;;;;;;17.83;13.93;;;;;;;;;;5054296;28;20147;-58
2021/11/06 02:36:59;;;;;;;17.77;14.90;;;;;;;;;;5053619;28;20029;-58
2021/11/06 02:39:26;;;;;;;20.35;15.20;;;;;;;;;;5054365;28;20086;-58
2021/11/06 02:42:03;;;;;;;19.77;14.82;;;;;;;;;;5054268;28;20039;-57
2021/11/06 02:44:29;;;;;;;20.77;15.60;;;;;;;;;;5054331;28;20116;-58
2021/11/06 02:46:56;;;;;;;23.50;16.25;;;;;;;;;;5053387;28;20036;-58
2021/11/06 02:49:22;;;;;;;18.75;14.73;;;;;;;;;;5054125;28;20029;-57
2021/11/06 02:51:47;;;;;;;25.75;13.60;;;;;;;;;;5054022;28;20059;-58
2021/11/06 02:54:14;;;;;;;13.82;12.07;;;;;;;;;;5054057;28;20033;-58
2021/11/06 02:56:40;;;;;;;22.52;12.55;;;;;;;;;;5052998;28;20025;-58
2021/11/06 02:59:06;;;;;;;16.30;13.40;;;;;;;;;;5054199;28;20120;-57
2021/11/06 03:01:32;;;;;;;12.93;11.18;;;;;;;;;;5053874;28;20128;-58
2021/11/06 03:03:58;;;;;;;13.85;9.50;;;;;;;;;;5053731;28;20442;-58
2021/11/06 03:06:24;;;;;;;18.60;10.88;;;;;;;;;;5053021;28;20029;-58
2021/11/06 03:08:50;;;;;;;17.48;10.60;;;;;;;;;;5053684;28;20029;-58
2021/11/06 03:11:16;;;;;;;12.60;9.68;;;;;;;;;;5053777;28;20072;-58
2021/11/06 03:13:43;;;;;;;18.55;9.30;;;;;;;;;;5053871;28;20542;-58
2021/11/06 03:16:10;;;;;;;8.85;7.95;;;;;;;;;;5052984;28;20036;-58
2021/11/06 03:18:36;;;;;;;8.52;7.70;;;;;;;;;;5053415;28;20123;-58
2021/11/06 03:21:03;;;;;;;9.98;8.95;;;;;;;;;;5053386;28;20395;-58
2021/11/06 03:23:29;;;;;;;13.48;10.02;;;;;;;;;;5053385;28;20029;-57
2021/11/06 03:25:55;;;;;;;9.07;7.93;;;;;;;;;;5053037;28;20036;-58
2021/11/06 03:28:22;;;;;;;9.30;8.13;;;;;;;;;;5052481;28;20489;-57
2021/11/06 03:30:48;;;;;;;8.98;8.07;;;;;;;;;;5053190;28;20464;-57
2021/11/06 03:33:14;;;;;;;14.13;8.20;;;;;;;;;;5053113;28;20024;-57
2021/11/06 03:35:40;;;;;;;10.18;7.90;;;;;;;;;;5053156;28;20033;-58
2021/11/06 03:38:06;;;;;;;11.73;7.13;;;;;;;;;;5052579;28;20029;-58
2021/11/06 03:40:32;;;;;;;9.50;7.93;;;;;;;;;;5052881;28;20076;-58
2021/11/06 03:42:58;;;;;;;7.40;6.28;;;;;;;;;;5052996;28;20033;-57
2021/11/06 03:45:24;;;;;;;8.70;6.75;;;;;;;;;;5053091;28;20036;-58
2021/11/06 03:47:50;;;;;;;9.32;7.65;;;;;;;;;;5051967;28;20037;-58
2021/11/06 03:50:16;;;;;;;7.75;6.95;;;;;;;;;;5052926;28;20017;-58
2021/11/06 03:52:42;;;;;;;8.43;7.43;;;;;;;;;;5052745;28;20025;-57
2021/11/06 03:55:09;;;;;;;12.25;7.80;;;;;;;;;;5052648;28;20029;-57
2021/11/06 03:57:35;;;;;;;11.32;8.65;;;;;;;;;;5052158;28;20490;-57
2021/11/06 04:00:02;;;;;;;16.58;7.63;;;;;;;;;;5052879;28;20086;-57
2021/11/06 04:02:28;;;;;;;8.95;8.05;;;;;;;;;;5052595;28;20025;-58
2021/11/06 04:04:54;;;;;;;8.70;7.85;;;;;;;;;;5052645;28;20160;-57
2021/11/06 04:07:20;;;;;;;8.10;7.32;;;;;;;;;;5051689;28;20108;-58
2021/11/06 04:09:46;;;;;;;9.27;8.05;;;;;;;;;;5052527;28;20028;-58
2021/11/06 04:12:12;;;;;;;8.97;7.87;;;;;;;;;;5052558;28;20029;-57
2021/11/06 04:14:38;;;;;;;8.77;7.95;;;;;;;;;;5052592;28;20528;-58
2021/11/06 04:17:04;;;;;;;9.23;7.95;;;;;;;;;;5052032;28;20025;-58
2021/11/06 04:19:30;;;;;;;10.10;8.40;;;;;;;;;;5053019;28;20470;-58
2021/11/06 04:21:56;;;;;;;8.18;7.05;;;;;;;;;;5052319;28;20025;-57
2021/11/06 04:24:23;;;;;;;13.38;8.90;;;;;;;;;;5052243;28;20035;-57
2021/11/06 04:26:49;;;;;;;9.30;8.10;;;;;;;;;;5051686;28;20347;-58
2021/11/06 04:29:15;;;;;;;9.48;7.93;;;;;;;;;;5052025;28;20075;-58
2021/11/06 04:31:41;;;;;;;8.20;7.40;;;;;;;;;;5045508;28;20029;-58
2021/11/06 04:34:07;;;;;;;9.23;7.70;;;;;;;;;;5052019;28;20108;-57
2021/11/06 04:36:33;;;;;;;8.98;7.85;;;;;;;;;;5051469;28;20029;-57
2021/11/06 04:38:59;;;;;;;10.48;7.82;;;;;;;;;;5052453;28;20036;-58
2021/11/06 04:41:25;;;;;;;9.85;7.80;;;;;;;;;;5052324;28;20033;-57
2021/11/06 04:43:52;;;;;;;9.32;7.70;;;;;;;;;;5052261;28;20029;-57
2021/11/06 04:46:18;;;;;;;9.20;8.30;;;;;;;;;;5050897;28;20028;-58
2021/11/06 04:48:43;;;;;;;8.02;7.22;;;;;;;;;;5048986;28;20044;-58
2021/11/06 04:51:10;;;;;;;9.90;8.40;;;;;;;;;;5052142;28;20036;-57
2021/11/06 04:53:36;;;;;;;12.38;8.43;;;;;;;;;;5051480;28;20086;-57
2021/11/06 04:56:01;;;;;;;10.05;8.65;;;;;;;;;;5052100;28;20112;-57
2021/11/06 04:58:27;;;;;;;9.52;7.97;;;;;;;;;;5049510;28;20131;-57
2021/11/06 05:00:54;;;;;;;12.75;7.85;;;;;;;;;;5051885;28;20029;-57
2021/11/06 05:03:20;;;;;;;20.83;7.18;;;;;;;;;;5051675;28;20029;-57
2021/11/06 05:05:46;;;;;;;8.38;7.20;;;;;;;;;;5051634;28;20036;-58
2021/11/06 05:08:12;;;;;;;14.32;7.82;;;;;;;;;;5050976;28;20037;-58
2021/11/06 05:10:38;;;;;;;9.23;7.88;;;;;;;;;;5052018;28;20029;-57
2021/11/06 05:13:04;;;;;;;17.00;7.63;;;;;;;;;;5051764;28;20071;-57
2021/11/06 05:15:31;;;;;;;20.83;9.43;;;;;;;;;;5051744;28;20417;-57
2021/11/06 05:17:57;;;;;;;7.60;6.35;;;;;;;;;;5051052;28;20029;-57
2021/11/06 05:20:23;;;;;;;11.73;7.50;;;;;;;;;;5051548;28;20180;-57
2021/11/06 05:22:49;;;;;;;7.47;6.43;;;;;;;;;;5051660;28;20445;-57
2021/11/06 05:25:15;;;;;;;17.77;7.50;;;;;;;;;;5051604;28;20056;-57
2021/11/06 05:27:41;;;;;;;14.63;6.82;;;;;;;;;;5050876;28;20079;-57
2021/11/06 05:30:08;;;;;;;11.40;6.17;;;;;;;;;;5051459;28;20029;-58
2021/11/06 05:32:35;;;;;;;7.10;6.13;;;;;;;;;;5051628;28;20383;-58
2021/11/06 05:35:01;;;;;;;19.07;6.27;;;;;;;;;;5051291;28;20104;-58
2021/11/06 05:37:27;;;;;;;10.63;5.43;;;;;;;;;;5051010;28;20029;-58
2021/11/06 05:39:54;;;;;;;25.20;7.27;;;;;;;;;;5051548;28;20025;-57
2021/11/06 05:42:20;;;;;;;15.40;6.03;;;;;;;;;;5051561;28;20055;-57
2021/11/06 05:44:46;;;;;;;13.33;5.73;;;;;;;;;;5051245;28;20047;-57
2021/11/06 05:47:12;;;;;;;11.83;4.67;;;;;;;;;;5050705;28;20021;-57
2021/11/06 05:49:38;;;;;;;6.90;5.77;;;;;;;;;;5051381;28;20112;-58
2021/11/06 05:52:04;;;;;;;5.73;4.43;;;;;;;;;;5050397;28;20021;-57
2021/11/06 05:54:30;;;;;;;8.27;5.37;;;;;;;;;;5051967;28;20371;-58
2021/11/06 05:56:56;;;;;;;9.17;5.27;;;;;;;;;;5048818;28;20029;-58
2021/11/06 05:59:22;;;;;;;21.67;6.13;;;;;;;;;;5050503;28;20025;-58
2021/11/06 06:01:48;;;;;;;16.20;5.03;;;;;;;;;;5051393;28;20086;-58
2021/11/06 06:04:14;;;;;;;9.43;5.57;;;;;;;;;;5051496;28;20017;-56
2021/11/06 06:06:40;;;;;;;18.20;4.90;;;;;;;;;;5053092;28;20029;-58
2021/11/06 06:09:06;;;;;;;19.13;5.60;;;;;;;;;;5055003;28;20029;-58
2021/11/06 06:11:32;;;;;;;25.60;4.67;;;;;;;;;;5055038;28;20032;-58
2021/11/06 06:13:58;;;;;;;20.13;5.93;;;;;;;;;;5054821;28;20086;-58
2021/11/06 06:16:25;;;;;;;26.83;7.00;;;;;;;;;;5053841;28;20402;-58
2021/11/06 06:18:50;;;;;;;21.33;6.60;;;;;;;;;;5054601;28;20087;-58
2021/11/06 06:21:16;;;;;;;27.73;6.47;;;;;;;;;;5054938;28;20439;-57
2021/11/06 06:23:42;;;;;;;10.73;5.00;;;;;;;;;;5054612;28;20087;-58
2021/11/06 06:26:10;;;;;;;14.70;4.83;;;;;;;;;;5054464;28;20199;-58
2021/11/06 06:28:36;;;;;;;32.10;6.93;;;;;;;;;;5053984;28;20584;-57
2021/11/06 06:31:02;;;;;;;8.03;5.37;;;;;;;;;;5054398;28;20025;-58
2021/11/06 06:33:28;;;;;;;8.47;5.23;;;;;;;;;;5054150;28;20035;-58
2021/11/06 06:35:54;;;;;;;11.37;5.60;;;;;;;;;;5054270;28;20037;-58
2021/11/06 06:38:20;;;;;;;15.47;5.37;;;;;;;;;;5053721;28;20029;-57
2021/11/06 06:40:46;;;;;;;10.77;5.77;;;;;;;;;;5054415;28;20395;-58
2021/11/06 06:43:12;;;;;;;8.67;5.63;;;;;;;;;;5053941;28;20453;-58
2021/11/06 06:45:38;;;;;;;19.03;5.03;;;;;;;;;;5054353;28;20119;-58
2021/11/06 06:48:04;;;;;;;15.10;5.80;;;;;;;;;;5053234;28;20025;-58
2021/11/06 06:50:30;;;;;;;10.00;6.20;;;;;;;;;;5054355;28;20143;-58
2021/11/06 06:52:56;;;;;;;20.63;7.03;;;;;;;;;;5053789;28;20562;-58
2021/11/06 06:55:22;;;;;;;9.17;5.73;;;;;;;;;;5054084;28;20067;-58
2021/11/06 06:57:48;;;;;;;9.33;5.37;;;;;;;;;;5050678;28;20072;-58
2021/11/06 07:00:15;;;;;;;8.50;6.27;;;;;;;;;;5053929;28;20021;-58
2021/11/06 07:02:41;;;;;;;7.70;6.37;;;;;;;;;;5053997;28;20029;-58
2021/11/06 07:05:09;;;;;;;7.40;5.57;;;;;;;;;;5053794;28;20463;-58
2021/11/06 07:07:35;;;;;;;17.80;6.53;;;;;;;;;;5052671;28;20033;-58
2021/11/06 07:10:01;;;;;;;7.83;6.33;;;;;;;;;;5053803;28;20021;-58
2021/11/06 07:12:29;;;;;;;10.27;6.70;;;;;;;;;;5053845;28;20051;-57
2021/11/06 07:14:56;;;;;;;9.27;6.50;;;;;;;;;;5053510;28;20092;-57
2021/11/06 07:17:22;;;;;;;13.97;6.80;;;;;;;;;;5052735;28;20028;-57
2021/11/06 07:19:48;;;;;;;6.80;5.77;;;;;;;;;;5053663;28;20029;-59
2021/11/06 07:22:14;;;;;;;17.23;6.47;;;;;;;;;;5053316;28;20056;-58
2021/11/06 07:24:40;;;;;;;8.07;6.63;;;;;;;;;;5053235;28;20028;-58
2021/11/06 07:27:07;;;;;;;14.37;7.67;;;;;;;;;;5052627;28;20021;-58
2021/11/06 07:29:33;;;;;;;10.60;6.63;;;;;;;;;;5052949;28;20033;-58
2021/11/06 07:31:59;;;;;;;12.27;8.23;;;;;;;;;;5053251;28;20083;-58
2021/11/06 07:34:25;;;;;;;10.63;7.83;;;;;;;;;;5052484;28;20035;-58
2021/11/06 07:36:51;;;;;;;28.67;7.43;;;;;;;;;;5052091;28;20479;-58
2021/11/06 07:39:18;;;;;;;27.00;10.05;;;;;;;;;;5053248;28;20059;-58
2021/11/06 07:41:45;;;;;;;22.20;6.83;;;;;;;;;;5053025;28;20067;-58
2021/11/06 07:44:12;;;;;;;32.67;9.43;;;;;;;;;;5052833;28;20068;-58
2021/11/06 07:46:38;;;;;;;33.13;7.90;;;;;;;;;;5051410;28;20040;-58
2021/11/06 07:49:04;;;;;;;23.10;7.70;;;;;;;;;;5049793;28;20032;-58
2021/11/06 07:51:30;;;;;;;16.87;7.83;;;;;;;;;;5053116;28;20032;-58
2021/11/06 07:53:56;;;;;;;28.27;6.80;;;;;;;;;;5052782;28;20036;-58
2021/11/06 07:56:22;;;;;;;21.10;6.37;;;;;;;;;;5052181;28;20025;-58
2021/11/06 07:58:48;;;;;;;37.45;8.18;;;;;;;;;;5051039;28;20461;-58
2021/11/06 08:01:14;;;;;;;37.03;9.52;;;;;;;;;;5052962;28;20025;-58
2021/11/06 08:03:40;;;;;;;25.10;6.95;;;;;;;;;;5052640;28;20348;-58
2021/11/06 08:06:06;;;;;;;14.05;6.68;;;;;;;;;;5052220;28;20029;-58
2021/11/06 08:08:33;;;;;;;12.70;6.95;;;;;;;;;;5052438;28;20033;-58
2021/11/06 08:10:59;;;;;;;20.48;8.32;;;;;;;;;;5049763;28;20352;-58
2021/11/06 08:13:26;;;;;;;11.73;7.72;;;;;;;;;;5052304;28;20048;-58
2021/11/06 08:15:52;;;;;;;20.13;7.45;;;;;;;;;;5051464;28;20055;-58
2021/11/06 08:18:18;;;;;;;16.30;7.10;;;;;;;;;;5051511;28;20465;-58
2021/11/06 08:20:44;;;;;;;48.35;9.48;;;;;;;;;;5050321;28;20032;-58
2021/11/06 08:23:10;;;;;;;12.43;7.78;;;;;;;;;;5049691;28;20057;-59
2021/11/06 08:25:36;;;;;;;9.63;7.38;;;;;;;;;;5050328;28;20028;-58
2021/11/06 08:28:03;;;;;;;24.35;7.35;;;;;;;;;;5049349;28;20063;-58
2021/11/06 08:30:29;;;;;;;15.25;6.35;;;;;;;;;;5047087;28;20056;-58
2021/11/06 08:32:56;;;;;;;16.07;7.37;;;;;;;;;;5050696;28;20029;-58
2021/11/06 08:35:25;;;;;;;10.00;6.30;;;;;;;;;;5051670;28;20078;-58
2021/11/06 08:37:51;;;;;;;8.18;6.50;;;;;;;;;;5050844;28;20111;-58
2021/11/06 08:40:17;;;;;;;8.48;7.10;;;;;;;;;;5052028;28;20104;-58
2021/11/06 08:42:43;;;;;;;20.98;6.45;;;;;;;;;;5052476;28;20041;-58
2021/11/06 08:45:10;;;;;;;24.97;7.43;;;;;;;;;;5051659;28;20356;-59
2021/11/06 08:47:37;;;;;;;34.53;7.40;;;;;;;;;;5051346;28;20491;-58
2021/11/06 08:50:07;;;;;;;42.63;7.90;;;;;;;;;;5052054;28;20032;-58
2021/11/06 08:52:33;;;;;;;19.42;6.78;;;;;;;;;;5052156;28;20025;-58
2021/11/06 08:54:59;;;;;;;13.57;6.45;;;;;;;;;;5051644;28;20032;-59
2021/11/06 08:57:25;;;;;;;9.23;5.40;;;;;;;;;;5051095;28;20025;-59
2021/11/06 08:59:54;;;;;;;29.05;6.90;;;;;;;;;;5051581;28;20108;-58
2021/11/06 09:02:21;;;;;;;74.03;10.18;;;;;;;;;;5051993;28;20091;-58
2021/11/06 09:04:49;;;;;;;78.93;10.98;;;;;;;;;;5051668;28;20025;-59
2021/11/06 09:07:15;;;;;;;65.00;9.82;;;;;;;;;;5051454;28;20033;-59
2021/11/06 09:09:41;;;;;;;32.90;8.45;;;;;;;;;;5051376;28;20134;-59
2021/11/06 09:12:07;;;;;;;24.48;8.32;;;;;;;;;;5051460;28;20025;-59
2021/11/06 09:14:34;;;;;;;11.85;6.68;;;;;;;;;;5051580;28;20031;-58
2021/11/06 09:17:00;;;;;;;22.85;6.53;;;;;;;;;;5051119;28;20021;-58
2021/11/06 09:19:26;;;;;;;36.72;5.80;;;;;;;;;;5052013;28;20090;-58
2021/11/06 09:21:52;;;;;;;35.10;6.65;;;;;;;;;;5051761;28;20029;-59
2021/11/06 09:24:18;;;;;;;46.58;8.18;;;;;;;;;;5051410;28;20033;-58
2021/11/06 09:26:45;;;;;;;26.08;7.55;;;;;;;;;;5051088;28;20029;-58
2021/11/06 09:29:12;;;;;;;19.10;6.60;;;;;;;;;;5051028;28;20036;-58
2021/11/06 09:31:38;;;;;;;17.30;5.47;;;;;;;;;;5051577;28;20364;-58
2021/11/06 09:34:05;;;;;;;59.05;8.50;;;;;;;;;;5051532;28;20037;-59
2021/11/06 09:36:32;;;;;;;11.52;7.47;;;;;;;;;;5051050;28;20033;-58
2021/11/06 09:39:01;;;;;;;28.42;8.20;;;;;;;;;;5051028;28;20037;-58
2021/11/06 09:41:27;;;;;;;21.13;9.10;;;;;;;;;;5055417;28;20033;-59
2021/11/06 09:43:53;;;;;;;47.65;9.40;;;;;;;;;;5055646;28;20021;-58
2021/11/06 09:46:19;;;;;;;17.88;7.38;;;;;;;;;;5054128;28;20029;-58
2021/11/06 09:48:46;;;;;;;21.40;8.50;;;;;;;;;;5055195;28;20029;-58
2021/11/06 09:51:13;;;;;;;28.55;7.80;;;;;;;;;;5055045;28;20528;-58
2021/11/06 09:53:40;;;;;;;18.38;8.57;;;;;;;;;;5055084;28;20040;-58
2021/11/06 09:56:10;;;;;;;37.10;8.32;;;;;;;;;;5054778;28;20353;-58
2021/11/06 09:58:36;;;;;;;14.55;8.40;;;;;;;;;;5055195;28;20032;-58
2021/11/06 10:01:03;;;;;;;26.83;8.45;;;;;;;;;;5054492;28;20021;-58
2021/11/06 10:03:29;;;;;;;27.60;9.57;;;;;;;;;;5054267;28;20057;-58
2021/11/06 10:06:00;;;;;;;12.63;8.38;;;;;;;;;;5054423;28;20070;-59
2021/11/06 10:08:26;;;;;;;;;;;;;;;;;;5054682;28;20044;-59
2021/11/06 10:10:53;;;;;;;21.50;8.32;;;;;;;;;;5054778;28;19905;-58
2021/11/06 10:13:20;;;;;;;24.83;10.23;;;;;;;;;;5054899;28;20111;-59
2021/11/06 10:15:47;;;;;;;21.23;10.27;;;;;;;;;;5054471;28;20025;-59
2021/11/06 10:18:16;;;;;;;22.20;9.68;;;;;;;;;;5053759;28;20036;-58
2021/11/06 10:20:42;;;;;;;18.88;8.95;;;;;;;;;;5054247;28;20471;-59
2021/11/06 10:23:08;;;;;;;39.50;10.88;;;;;;;;;;5054365;28;20052;-59
2021/11/06 10:25:37;;;;;;;22.48;11.23;;;;;;;;;;5054475;28;20025;-58
2021/11/06 10:28:05;;;;;;;25.25;10.48;;;;;;;;;;5053632;28;20080;-58
2021/11/06 10:30:33;;;;;;;15.65;8.20;;;;;;;;;;5053912;28;20098;-59
2021/11/06 10:33:20;;;;;;;25.00;10.50;;;;;;;;;;5054057;28;20040;-58
2021/11/06 10:35:47;;;;;;;28.13;11.75;;;;;;;;;;5054008;28;20040;-58
2021/11/06 10:38:17;;;;;;;29.08;13.20;;;;;;;;;;5053323;28;20115;-58
2021/11/06 10:40:49;;;;;;;19.00;9.65;;;;;;;;;;5053636;28;20033;-59
2021/11/06 10:43:17;;;;;;;21.48;13.05;;;;;;;;;;5053914;28;20079;-58
2021/11/06 10:45:48;;;;;;;30.52;12.18;;;;;;;;;;5051170;28;20118;-58
2021/11/06 10:48:18;;;;;;;16.63;13.23;;;;;;;;;;5053275;28;20060;-58
2021/11/06 10:50:47;;;;;;;23.70;12.77;;;;;;;;;;5053304;28;20039;-58
2021/11/06 10:53:32;;;;;;;31.45;13.93;;;;;;;;;;5053439;28;20486;-58
2021/11/06 10:56:02;;;;;;;17.52;12.35;;;;;;;;;;5053037;28;20036;-58
2021/11/06 10:58:33;;;;;;;17.75;13.10;;;;;;;;;;5052739;28;20040;-58
2021/11/06 11:01:01;;;;;;;23.48;12.23;;;;;;;;;;5053693;28;20078;-58
2021/11/06 11:03:28;;;;;;;26.58;13.05;;;;;;;;;;5052174;28;20025;-58
2021/11/06 11:05:54;;;;;;;16.13;11.50;;;;;;;;;;5053409;28;20412;-58
2021/11/06 11:08:20;;;;;;;16.50;13.25;;;;;;;;;;5052883;28;20460;-59
2021/11/06 11:10:46;;;;;;;15.00;11.68;;;;;;;;;;5052962;28;20029;-58
2021/11/06 11:13:14;;;;;;;33.25;13.38;;;;;;;;;;5053072;28;20025;-58
2021/11/06 11:15:41;;;;;;;22.27;14.48;;;;;;;;;;5053757;28;20100;-58
2021/11/06 11:18:07;;;;;;;23.10;16.17;;;;;;;;;;5052718;28;20024;-58
2021/11/06 11:20:39;;;;;;;18.80;13.55;;;;;;;;;;5053385;28;20112;-59
2021/11/06 11:23:09;;;;;;;21.05;14.63;;;;;;;;;;5053274;28;20029;-59
2021/11/06 11:25:36;;;;;;;33.50;16.13;;;;;;;;;;5053117;28;20029;-59
2021/11/06 11:28:02;;;;;;;22.40;16.00;;;;;;;;;;5052224;28;20045;-58
2021/11/06 11:30:28;;;;;;;21.35;16.15;;;;;;;;;;5053244;28;20021;-59
2021/11/06 11:32:54;;;;;;;30.08;16.70;;;;;;;;;;5052934;28;20028;-58
2021/11/06 11:35:20;;;;;;;28.42;18.27;;;;;;;;;;5052803;28;20044;-58
2021/11/06 11:37:47;;;;;;;27.20;18.38;;;;;;;;;;5052265;28;20455;-59
2021/11/06 11:40:13;;;;;;;30.25;18.95;;;;;;;;;;5052459;28;20033;-59
2021/11/06 11:42:42;;;;;;;28.10;17.23;;;;;;;;;;5052576;28;20056;-59
2021/11/06 11:45:32;;;;;;;32.00;18.90;;;;;;;;;;5053022;28;20476;-59
2021/11/06 11:48:01;;;;;;;20.67;16.58;;;;;;;;;;5051882;28;20457;-58
2021/11/06 11:50:32;;;;;;;28.27;16.02;;;;;;;;;;5053033;28;20374;-59
2021/11/06 11:52:58;;;;;;;;;;;;;;;;;;5053665;28;20102;-59
2021/11/06 11:55:35;;;;;;;28.60;17.60;;;;;;;;;;5052453;28;19908;-58
2021/11/06 11:58:06;;;;;;;28.67;19.30;;;;;;;;;;5051746;28;20036;-59
2021/11/06 12:00:40;;;;;;;31.55;19.90;;;;;;;;;;5060424;28;20376;-59
2021/11/06 12:03:07;;;;;;;29.95;20.27;;;;;;;;;;5051746;28;20800;-59
2021/11/06 12:05:43;;;;;;;28.30;17.75;;;;;;;;;;5060569;28;20020;-58
2021/11/06 12:08:13;;;;;;;27.13;19.35;;;;;;;;;;5057925;28;20071;-58
2021/11/06 12:10:40;;;;;;;31.58;21.92;;;;;;;;;;5051856;28;20033;-58
2021/11/06 12:13:35;;;;;;;30.40;20.55;;;;;;;;;;5049808;28;20040;-59
2021/11/06 12:16:12;;;;;;;26.10;17.73;;;;;;;;;;5051854;28;20025;-59
2021/11/06 12:18:41;;;;;;;25.20;17.52;;;;;;;;;;5051165;28;20115;-58
2021/11/06 12:23:36;;;;;;;24.55;18.33;;;;;;;;;;5051543;28;20119;-58
2021/11/06 12:26:18;;;;;;;34.78;20.58;;;;;;;;;;5051489;28;20028;-58
2021/11/06 12:28:45;;;;;;;23.63;16.17;;;;;;;;;;5049427;28;20120;-58
2021/11/06 12:31:23;;;;;;;23.83;17.50;;;;;;;;;;5049030;28;20024;-58
2021/11/06 12:33:50;;;;;;;26.40;18.50;;;;;;;;;;5048198;28;20029;-58
2021/11/06 12:36:17;;;;;;;25.23;17.67;;;;;;;;;;5049361;28;20123;-58
2021/11/06 12:38:43;;;;;;;32.28;19.25;;;;;;;;;;5050691;28;20100;-58
2021/11/06 12:41:11;;;;;;;27.80;20.67;;;;;;;;;;5050901;28;20033;-58
2021/11/06 12:43:48;;;;;;;30.88;20.65;;;;;;;;;;5051537;28;20033;-58
2021/11/06 12:46:17;;;;;;;28.98;20.10;;;;;;;;;;5051013;28;20033;-59
2021/11/06 12:48:45;;;;;;;30.98;18.92;;;;;;;;;;5051853;28;20033;-58
2021/11/06 12:51:13;;;;;;;23.88;17.65;;;;;;;;;;5051974;28;20021;-58
2021/11/06 12:53:44;;;;;;;32.05;20.42;;;;;;;;;;5051863;28;20066;-58
2021/11/06 12:56:10;;;;;;;32.83;21.50;;;;;;;;;;5051488;28;20025;-59
2021/11/06 12:58:37;;;;;;;27.17;18.88;;;;;;;;;;5051666;28;20040;-59
2021/11/06 13:01:15;;;;;;;27.10;20.65;;;;;;;;;;5051392;28;20456;-58
2021/11/06 13:03:45;;;;;;;23.35;17.48;;;;;;;;;;5051656;28;20098;-58
2021/11/06 13:06:18;;;;;;;22.15;16.95;;;;;;;;;;5051267;28;20036;-59
2021/11/06 13:09:03;;;;;;;30.45;20.00;;;;;;;;;;5051562;28;20033;-58
2021/11/06 13:11:47;;;;;;;25.90;19.10;;;;;;;;;;5051447;28;20378;-58
2021/11/06 13:14:32;;;;;;;31.60;21.63;;;;;;;;;;5051546;28;20025;-58
2021/11/06 13:17:15;;;;;;;30.73;21.80;;;;;;;;;;5055091;28;20071;-58
2021/11/06 13:19:45;;;;;;;27.63;22.05;;;;;;;;;;5055588;28;20029;-58
2021/11/06 13:22:16;;;;;;;29.75;20.92;;;;;;;;;;5055898;28;20021;-58
2021/11/06 13:24:42;;;;;;;;;;;;;;;;;;5056176;28;20025;-58
2021/11/06 13:27:08;;;;;;;27.90;21.05;;;;;;;;;;5054326;28;19913;-58
2021/11/06 13:29:34;;;;;;;30.08;22.63;;;;;;;;;;5055513;28;20044;-58
2021/11/06 13:32:04;;;;;;;35.17;23.05;;;;;;;;;;5056002;28;20043;-58
2021/11/06 13:34:37;;;;;;;30.52;20.90;;;;;;;;;;5055603;28;20078;-58
2021/11/06 13:37:03;;;;;;;35.70;23.13;;;;;;;;;;5054675;28;20115;-58
2021/11/06 13:39:33;;;;;;;35.65;24.02;;;;;;;;;;5055218;28;20036;-58
2021/11/06 13:41:59;;;;;;;36.75;23.80;;;;;;;;;;5054822;28;20041;-58
2021/11/06 13:44:26;;;;;;;34.92;24.58;;;;;;;;;;5055148;28;20048;-58
2021/11/06 13:46:56;;;;;;;36.05;23.98;;;;;;;;;;5054561;28;20024;-58
2021/11/06 13:49:28;;;;;;;34.13;23.05;;;;;;;;;;5055290;28;20029;-58
2021/11/06 13:51:54;;;;;;;37.80;25.10;;;;;;;;;;5055398;28;20040;-58
2021/11/06 13:54:25;;;;;;;33.90;25.25;;;;;;;;;;5055035;28;20028;-58
2021/11/06 13:56:57;;;;;;;32.70;23.40;;;;;;;;;;5054511;28;20033;-58
2021/11/06 13:59:31;;;;;;;32.50;23.45;;;;;;;;;;5055036;28;20545;-58
2021/11/06 14:01:57;;;;;;;33.05;22.88;;;;;;;;;;5055212;28;20075;-58
2021/11/06 14:04:24;;;;;;;33.97;23.27;;;;;;;;;;5055276;28;20032;-58
2021/11/06 14:06:51;;;;;;;31.95;23.08;;;;;;;;;;5052972;28;20044;-58
2021/11/06 14:09:18;;;;;;;35.97;25.40;;;;;;;;;;5054580;28;20033;-58
2021/11/06 14:11:48;;;;;;;33.38;23.85;;;;;;;;;;5054763;28;20028;-58
2021/11/06 14:14:14;;;;;;;39.28;25.77;;;;;;;;;;5054978;28;20028;-58
2021/11/06 14:16:40;;;;;;;34.05;24.33;;;;;;;;;;5053766;28;20129;-58
2021/11/06 14:19:07;;;;;;;34.83;25.50;;;;;;;;;;5055143;28;20104;-58
2021/11/06 14:21:38;;;;;;;36.42;22.83;;;;;;;;;;5054715;28;20112;-58
2021/11/06 14:24:08;;;;;;;38.35;24.67;;;;;;;;;;5034580;28;20033;-59
2021/11/06 14:26:42;;;;;;;35.72;24.05;;;;;;;;;;5032737;28;20115;-59
2021/11/06 14:29:11;;;;;;;36.50;25.30;;;;;;;;;;5034218;28;20080;-59